createdAt,value
2022-08-28T00:00:29.237Z,2.22
2022-08-28T00:02:58.425Z,2.95
2022-08-28T00:05:28.557Z,2.78
2022-08-28T00:07:57.116Z,3.38
2022-08-28T00:10:25.487Z,2.50
2022-08-28T00:12:54.972Z,6.32
2022-08-28T00:15:28.785Z,3.22
2022-08-28T00:17:56.991Z,2.60
2022-08-28T00:20:26.743Z,3.15
2022-08-28T00:22:55.531Z,2.80
2022-08-28T00:25:25.102Z,4.05
2022-08-28T00:27:52.556Z,2.30
2022-08-28T00:30:22.353Z,2.85
2022-08-28T00:32:51.919Z,3.95
2022-08-28T00:35:20.533Z,2.67
2022-08-28T00:37:48.458Z,2.17
2022-08-28T00:40:28.426Z,2.20
2022-08-28T00:42:59.054Z,3.40
2022-08-28T00:45:27.841Z,3.35
2022-08-28T00:47:57.121Z,3.38
2022-08-28T00:50:54.218Z,2.10
2022-08-28T00:53:30.163Z,3.30
2022-08-28T00:56:02.357Z,4.22
2022-08-28T00:58:32.480Z,2.13
2022-08-28T01:01:00.804Z,2.33
2022-08-28T01:03:30.935Z,1.80
2022-08-28T01:05:59.104Z,2.05
2022-08-28T01:08:30.250Z,2.47
2022-08-28T01:11:00.455Z,3.88
2022-08-28T01:13:29.984Z,2.80
2022-08-28T01:15:59.001Z,1.90
2022-08-28T01:18:28.865Z,3.10
2022-08-28T01:21:04.271Z,2.50
2022-08-28T01:23:51.176Z,2.47
2022-08-28T01:26:19.862Z,2.20
2022-08-28T01:28:48.234Z,2.10
2022-08-28T01:31:18.099Z,4.50
2022-08-28T01:33:48.301Z,1.83
2022-08-28T01:36:17.775Z,1.88
2022-08-28T01:38:50.869Z,1.95
2022-08-28T01:41:19.222Z,2.05
2022-08-28T01:43:47.105Z,3.70
2022-08-28T01:46:15.061Z,2.35
2022-08-28T01:48:44.918Z,2.10
2022-08-28T01:51:14.473Z,3.72
2022-08-28T01:53:45.183Z,2.50
2022-08-28T01:56:18.095Z,3.90
2022-08-28T01:58:47.979Z,3.63
2022-08-28T02:01:20.245Z,1.95
2022-08-28T02:03:48.640Z,3.00
2022-08-28T02:06:17.769Z,2.80
2022-08-28T02:08:46.701Z,2.65
2022-08-28T02:11:16.331Z,2.80
2022-08-28T02:13:45.364Z,2.97
2022-08-28T02:16:13.282Z,2.90
2022-08-28T02:18:41.757Z,3.42
2022-08-28T02:21:10.748Z,3.22
2022-08-28T02:23:39.820Z,2.85
2022-08-28T02:26:07.901Z,2.90
2022-08-28T02:28:37.417Z,3.92
2022-08-28T02:31:05.859Z,3.10
2022-08-28T02:33:33.936Z,2.85
2022-08-28T02:36:01.808Z,5.60
2022-08-28T02:38:29.872Z,4.13
2022-08-28T02:40:58.994Z,4.80
2022-08-28T02:43:27.457Z,3.00
2022-08-28T02:45:56.766Z,3.00
2022-08-28T02:48:25.044Z,3.60
2022-08-28T02:50:58.970Z,3.50
2022-08-28T02:53:27.099Z,5.47
2022-08-28T02:55:55.586Z,3.53
2022-08-28T02:58:23.684Z,3.53
2022-08-28T03:00:51.563Z,3.35
2022-08-28T03:03:21.263Z,3.35
2022-08-28T03:05:49.803Z,3.95
2022-08-28T03:08:18.559Z,3.65
2022-08-28T03:10:46.380Z,3.45
2022-08-28T03:13:26.676Z,3.17
2022-08-28T03:15:55.584Z,4.07
2022-08-28T03:18:26.398Z,3.20
2022-08-28T03:20:55.536Z,4.28
2022-08-28T03:23:30.190Z,4.30
2022-08-28T03:26:01.115Z,4.93
2022-08-28T03:28:32.133Z,4.35
2022-08-28T03:31:00.121Z,6.80
2022-08-28T03:33:29.769Z,6.15
2022-08-28T03:35:57.836Z,3.83
2022-08-28T03:38:25.936Z,5.25
2022-08-28T03:40:54.423Z,3.60
2022-08-28T03:43:24.241Z,3.58
2022-08-28T03:45:54.732Z,4.70
2022-08-28T03:48:24.380Z,4.15
2022-08-28T03:50:54.269Z,5.13
2022-08-28T03:53:24.528Z,4.28
2022-08-28T03:55:53.188Z,6.53
2022-08-28T03:58:21.158Z,4.07
2022-08-28T04:00:49.882Z,4.50
2022-08-28T04:03:18.360Z,3.80
2022-08-28T04:05:47.782Z,4.13
2022-08-28T04:08:18.428Z,5.53
2022-08-28T04:10:47.594Z,4.07
2022-08-28T04:13:17.431Z,4.90
2022-08-28T04:15:45.648Z,5.63
2022-08-28T04:18:13.862Z,4.85
2022-08-28T04:20:41.824Z,6.47
2022-08-28T04:23:15.719Z,4.20
2022-08-28T04:25:43.590Z,4.00
2022-08-28T04:28:11.690Z,4.50
2022-08-28T04:30:42.185Z,3.58
2022-08-28T04:33:10.526Z,4.97
2022-08-28T04:35:38.658Z,4.95
2022-08-28T04:38:06.584Z,5.07
2022-08-28T04:40:39.404Z,4.53
2022-08-28T04:43:07.475Z,4.05
2022-08-28T04:45:40.005Z,4.15
2022-08-28T04:48:13.799Z,4.37
2022-08-28T04:50:43.070Z,10.32
2022-08-28T04:53:11.752Z,4.85
2022-08-28T04:55:54.324Z,4.10
2022-08-28T04:58:24.214Z,5.00
2022-08-28T05:00:53.971Z,4.32
2022-08-28T05:03:22.194Z,5.65
2022-08-28T05:05:52.397Z,3.80
2022-08-28T05:08:22.113Z,4.80
2022-08-28T05:10:52.175Z,4.25
2022-08-28T05:13:20.728Z,5.80
2022-08-28T05:15:50.793Z,4.50
2022-08-28T05:18:22.015Z,5.38
2022-08-28T05:20:49.917Z,4.82
2022-08-28T05:23:18.115Z,4.38
2022-08-28T05:25:48.680Z,4.15
2022-08-28T05:28:18.469Z,5.07
2022-08-28T05:30:47.373Z,5.40
2022-08-28T05:33:15.950Z,4.78
2022-08-28T05:35:46.316Z,4.43
2022-08-28T05:38:16.345Z,4.88
2022-08-28T05:40:45.496Z,4.45
2022-08-28T05:43:15.068Z,5.55
2022-08-28T05:45:44.830Z,4.60
2022-08-28T05:48:16.193Z,5.88
2022-08-28T05:50:47.636Z,5.65
2022-08-28T05:53:17.348Z,4.68
2022-08-28T05:55:45.329Z,4.80
2022-08-28T05:58:33.449Z,5.22
2022-08-28T06:01:12.228Z,7.10
2022-08-28T06:03:40.814Z,5.65
2022-08-28T06:06:10.366Z,5.40
2022-08-28T06:08:39.291Z,7.85
2022-08-28T06:11:27.155Z,6.72
2022-08-28T06:13:59.488Z,9.27
2022-08-28T06:16:31.298Z,5.63
2022-08-28T06:19:00.583Z,7.47
2022-08-28T06:21:28.858Z,6.90
2022-08-28T06:23:57.039Z,6.82
2022-08-28T06:26:25.017Z,7.13
2022-08-28T06:28:53.544Z,6.90
2022-08-28T06:31:24.732Z,6.60
2022-08-28T06:33:56.006Z,7.45
2022-08-28T06:36:24.395Z,6.30
2022-08-28T06:38:52.405Z,7.95
2022-08-28T06:41:20.323Z,7.38
2022-08-28T06:43:48.460Z,7.07
2022-08-28T06:46:16.708Z,8.93
2022-08-28T06:48:44.607Z,7.68
2022-08-28T06:51:14.737Z,8.30
2022-08-28T06:53:44.633Z,10.27
2022-08-28T06:56:26.889Z,9.50
2022-08-28T06:58:56.700Z,9.38
2022-08-28T07:01:29.207Z,8.35
2022-08-28T07:04:00.394Z,9.68
2022-08-28T07:06:33.418Z,9.50
2022-08-28T07:09:01.381Z,10.07
2022-08-28T07:11:32.355Z,10.30
2022-08-28T07:14:01.761Z,13.85
2022-08-28T07:16:31.971Z,14.25
2022-08-28T07:19:02.683Z,13.50
2022-08-28T07:21:32.616Z,20.38
2022-08-28T07:24:05.523Z,17.25
2022-08-28T07:26:33.599Z,17.27
2022-08-28T07:29:10.912Z,15.80
2022-08-28T07:31:41.147Z,17.25
2022-08-28T07:34:10.469Z,19.60
2022-08-28T07:36:40.435Z,24.25
2022-08-28T07:39:10.558Z,31.45
2022-08-28T07:41:40.137Z,22.48
2022-08-28T07:44:25.854Z,24.92
2022-08-28T07:46:55.311Z,25.27
2022-08-28T07:49:23.875Z,28.23
2022-08-28T07:51:54.331Z,27.33
2022-08-28T07:54:22.662Z,24.08
2022-08-28T07:56:51.097Z,26.27
2022-08-28T07:59:19.334Z,23.88
2022-08-28T08:01:49.131Z,23.20
2022-08-28T08:04:19.891Z,22.02
2022-08-28T08:06:48.625Z,23.40
2022-08-28T08:09:19.529Z,24.70
2022-08-28T08:11:48.142Z,24.73
2022-08-28T08:14:18.225Z,21.48
2022-08-28T08:16:47.663Z,22.73
2022-08-28T08:19:16.745Z,25.48
2022-08-28T08:21:46.866Z,22.98
2022-08-28T08:24:20.667Z,25.70
2022-08-28T08:26:58.998Z,28.17
2022-08-28T08:29:31.215Z,23.73
2022-08-28T08:32:05.113Z,24.42
2022-08-28T08:34:33.788Z,19.90
2022-08-28T08:37:01.667Z,22.27
2022-08-28T08:39:29.544Z,20.17
2022-08-28T08:42:03.681Z,14.70
2022-08-28T08:44:35.304Z,15.65
2022-08-28T08:47:14.922Z,15.13
2022-08-28T08:49:50.524Z,16.10
2022-08-28T08:52:29.143Z,13.35
2022-08-28T08:55:07.144Z,12.32
2022-08-28T08:57:37.906Z,12.20
2022-08-28T09:00:12.277Z,11.35
2022-08-28T09:02:49.544Z,14.05
2022-08-28T09:05:21.834Z,13.27
2022-08-28T09:07:56.804Z,12.98
2022-08-28T09:10:26.709Z,13.30
2022-08-28T09:13:01.445Z,12.63
2022-08-28T09:15:32.959Z,14.18
2022-08-28T09:18:10.743Z,14.40
2022-08-28T09:20:39.186Z,15.50
2022-08-28T09:23:13.412Z,17.45
2022-08-28T09:25:52.192Z,17.40
2022-08-28T09:28:25.272Z,15.13
2022-08-28T09:31:01.291Z,16.90
2022-08-28T09:33:40.093Z,17.95
2022-08-28T09:36:30.053Z,18.83
2022-08-28T09:39:07.839Z,18.75
2022-08-28T09:41:56.976Z,22.10
2022-08-28T09:44:26.421Z,19.23
2022-08-28T09:46:54.336Z,19.05
2022-08-28T09:49:28.917Z,18.45
2022-08-28T09:52:01.558Z,17.63
2022-08-28T09:54:34.054Z,16.35
2022-08-28T09:57:03.442Z,17.20
2022-08-28T09:59:32.912Z,17.23
2022-08-28T10:02:19.657Z,16.75
2022-08-28T10:04:58.838Z,16.85
2022-08-28T10:07:34.168Z,16.52
2022-08-28T10:10:18.004Z,18.17
2022-08-28T10:13:00.240Z,16.30
2022-08-28T10:15:42.509Z,18.25
2022-08-28T10:18:34.133Z,16.55
2022-08-28T10:21:11.214Z,15.63
2022-08-28T10:23:50.037Z,15.45
2022-08-28T10:26:28.707Z,17.00
2022-08-28T10:29:08.828Z,15.18
2022-08-28T10:31:48.026Z,15.80
2022-08-28T10:34:32.922Z,13.80
2022-08-28T10:37:19.180Z,14.68
2022-08-28T10:39:54.903Z,14.63
2022-08-28T10:42:35.996Z,16.27
2022-08-28T10:45:10.870Z,15.25
2022-08-28T10:47:43.503Z,15.30
2022-08-28T10:50:18.288Z,12.88
2022-08-28T10:52:49.617Z,14.85
2022-08-28T10:55:22.486Z,14.57
2022-08-28T10:57:54.014Z,14.88
2022-08-28T11:00:24.517Z,14.32
2022-08-28T11:02:57.091Z,16.35
2022-08-28T11:05:27.908Z,15.43
2022-08-28T11:07:58.214Z,17.00
2022-08-28T11:10:50.300Z,16.88
2022-08-28T11:13:40.679Z,15.88
2022-08-28T11:16:13.550Z,17.60
2022-08-28T11:19:13.898Z,16.48
2022-08-28T11:21:47.070Z,17.38
2022-08-28T11:24:44.132Z,17.90
2022-08-28T11:27:29.308Z,17.38
2022-08-28T11:30:03.933Z,19.27
2022-08-28T11:32:47.028Z,22.70
2022-08-28T11:35:43.037Z,20.90
2022-08-28T11:38:11.296Z,20.98
2022-08-28T11:40:55.314Z,21.80
2022-08-28T11:43:36.773Z,21.85
2022-08-28T11:46:14.777Z,24.50
2022-08-28T11:48:49.817Z,23.40
2022-08-28T11:51:43.365Z,23.00
2022-08-28T11:54:23.982Z,22.65
2022-08-28T11:57:03.406Z,24.33
2022-08-28T11:59:53.704Z,28.65
2022-08-28T12:02:48.921Z,24.65
2022-08-28T12:05:45.205Z,24.92
2022-08-28T12:08:53.330Z,26.63
2022-08-28T12:11:53.819Z,23.85
2022-08-28T12:15:07.504Z,25.92
2022-08-28T12:17:57.246Z,26.50
2022-08-28T12:20:35.877Z,27.00
2022-08-28T12:23:25.081Z,26.88
2022-08-28T12:26:01.138Z,26.58
2022-08-28T12:28:31.645Z,28.08
2022-08-28T12:31:46.632Z,25.48
2022-08-28T12:34:23.623Z,27.52
2022-08-28T12:36:58.158Z,27.38
2022-08-28T12:39:26.251Z,27.02
2022-08-28T12:41:54.442Z,30.90
2022-08-28T12:44:26.343Z,28.40
2022-08-28T12:46:55.132Z,27.42
2022-08-28T12:49:34.567Z,26.30
2022-08-28T12:52:12.108Z,27.45
2022-08-28T12:54:45.452Z,26.33
2022-08-28T12:57:15.932Z,25.58
2022-08-28T12:59:45.934Z,23.52
2022-08-28T13:02:27.789Z,24.13
2022-08-28T13:04:59.267Z,28.42
2022-08-28T13:07:30.633Z,22.95
2022-08-28T13:10:03.437Z,23.80
2022-08-28T13:12:55.781Z,24.30
2022-08-28T13:15:45.796Z,21.77
2022-08-28T13:18:39.228Z,24.30
2022-08-28T13:21:33.708Z,23.42
2022-08-28T13:24:36.538Z,21.83
2022-08-28T13:27:08.775Z,22.20
2022-08-28T13:29:37.949Z,22.17
2022-08-28T13:32:09.070Z,20.48
2022-08-28T13:34:38.934Z,20.98
2022-08-28T13:37:42.984Z,19.70
2022-08-28T13:40:30.266Z,21.10
2022-08-28T13:43:03.370Z,24.48
2022-08-28T13:45:42.315Z,20.40
2022-08-28T13:48:12.396Z,19.55
2022-08-28T13:50:44.737Z,20.00
2022-08-28T13:53:17.942Z,21.48
2022-08-28T13:55:47.133Z,20.17
2022-08-28T13:58:15.735Z,19.75
2022-08-28T14:00:46.964Z,20.35
2022-08-28T14:03:33.509Z,17.55
2022-08-28T14:06:02.834Z,18.55
2022-08-28T14:08:32.325Z,22.33
2022-08-28T14:11:00.437Z,18.50
2022-08-28T14:13:28.456Z,18.15
2022-08-28T14:15:56.717Z,19.25
2022-08-28T14:18:25.196Z,20.95
2022-08-28T14:20:53.546Z,19.42
2022-08-28T14:23:21.510Z,21.48
2022-08-28T14:25:50.808Z,19.52
2022-08-28T14:28:19.257Z,22.80
2022-08-28T14:30:48.777Z,18.75
2022-08-28T14:33:20.491Z,20.25
2022-08-28T14:35:49.650Z,16.92
2022-08-28T14:38:17.918Z,17.13
2022-08-28T14:40:46.013Z,16.23
2022-08-28T14:43:15.638Z,17.88
2022-08-28T14:45:45.712Z,17.25
2022-08-28T14:48:14.343Z,17.30
2022-08-28T14:50:43.011Z,15.45
2022-08-28T14:53:11.603Z,15.98
2022-08-28T14:55:41.597Z,15.90
2022-08-28T14:58:09.525Z,16.40
2022-08-28T15:00:43.676Z,17.08
2022-08-28T15:03:12.357Z,17.23
2022-08-28T15:05:41.077Z,16.60
2022-08-28T15:08:09.457Z,14.70
2022-08-28T15:10:39.023Z,15.55
2022-08-28T15:13:08.669Z,14.52
2022-08-28T15:15:39.213Z,15.00
2022-08-28T15:18:10.172Z,16.40
2022-08-28T15:20:39.105Z,15.95
2022-08-28T15:23:07.234Z,15.10
2022-08-28T15:25:35.239Z,14.68
2022-08-28T15:28:03.415Z,15.38
2022-08-28T15:30:31.344Z,15.40
2022-08-28T15:32:59.268Z,13.27
2022-08-28T15:35:28.640Z,14.45
2022-08-28T15:37:56.561Z,11.82
2022-08-28T15:40:42.302Z,11.32
2022-08-28T15:43:10.218Z,10.82
2022-08-28T15:45:39.206Z,10.70
2022-08-28T15:48:07.970Z,8.38
2022-08-28T15:50:37.353Z,9.73
2022-08-28T15:53:06.681Z,8.20
2022-08-28T15:55:36.507Z,10.15
2022-08-28T15:58:05.316Z,8.30
2022-08-28T16:00:42.299Z,6.95
2022-08-28T16:03:10.384Z,8.68
2022-08-28T16:05:40.785Z,7.28
2022-08-28T16:08:10.737Z,7.03
2022-08-28T16:10:38.681Z,7.10
2022-08-28T16:13:06.905Z,8.95
2022-08-28T16:15:35.126Z,8.50
2022-08-28T16:18:03.237Z,8.35
2022-08-28T16:20:31.111Z,7.43
2022-08-28T16:23:00.328Z,10.23
2022-08-28T16:25:28.184Z,7.30
2022-08-28T16:27:56.386Z,7.30
2022-08-28T16:30:24.612Z,7.95
2022-08-28T16:32:52.649Z,8.65
2022-08-28T16:35:22.241Z,10.00
2022-08-28T16:37:50.123Z,10.40
2022-08-28T16:40:19.605Z,10.88
2022-08-28T16:42:51.295Z,12.88
2022-08-28T16:45:20.584Z,12.85
2022-08-28T16:47:49.075Z,9.88
2022-08-28T16:50:17.878Z,11.25
2022-08-28T16:52:46.538Z,9.32
2022-08-28T16:55:14.902Z,9.07
2022-08-28T16:57:44.965Z,8.73
2022-08-28T17:00:14.153Z,10.27
2022-08-28T17:02:43.459Z,13.50
2022-08-28T17:05:12.480Z,10.88
2022-08-28T17:07:40.882Z,12.10
2022-08-28T17:10:12.075Z,12.90
2022-08-28T17:12:40.062Z,14.10
2022-08-28T17:15:11.503Z,14.32
2022-08-28T17:17:40.069Z,11.93
2022-08-28T17:20:29.403Z,12.43
2022-08-28T17:22:56.583Z,12.70
2022-08-28T17:25:25.252Z,15.38
2022-08-28T17:27:53.553Z,14.98
2022-08-28T17:30:23.487Z,13.98
2022-08-28T17:32:51.707Z,16.67
2022-08-28T17:35:19.944Z,14.40
2022-08-28T17:37:47.898Z,15.73
2022-08-28T17:40:17.861Z,16.40
2022-08-28T17:42:47.997Z,13.68
2022-08-28T17:45:16.479Z,15.88
2022-08-28T17:47:45.728Z,15.48
2022-08-28T17:50:13.829Z,17.20
2022-08-28T17:52:41.713Z,13.77
2022-08-28T17:55:09.996Z,17.73
2022-08-28T17:57:38.109Z,14.63
2022-08-28T18:00:08.893Z,17.40
2022-08-28T18:02:40.670Z,15.35
2022-08-28T18:05:11.961Z,19.60
2022-08-28T18:07:39.885Z,18.60
2022-08-28T18:10:09.465Z,18.58
2022-08-28T18:12:37.807Z,17.85
2022-08-28T18:15:07.677Z,17.60
2022-08-28T18:17:37.254Z,25.48
2022-08-28T18:20:05.295Z,19.23
2022-08-28T18:22:34.601Z,19.13
2022-08-28T18:25:04.014Z,20.65
2022-08-28T18:27:34.290Z,22.92
2022-08-28T18:30:02.547Z,20.05
2022-08-28T18:32:30.429Z,17.40
2022-08-28T18:34:58.389Z,19.55
2022-08-28T18:37:26.340Z,17.23
2022-08-28T18:39:55.542Z,20.35
2022-08-28T18:42:24.265Z,19.20
2022-08-28T18:44:52.192Z,16.98
2022-08-28T18:47:20.122Z,20.90
2022-08-28T18:49:48.134Z,17.13
2022-08-28T18:52:16.067Z,27.38
2022-08-28T18:54:43.993Z,22.38
2022-08-28T18:57:15.197Z,23.83
2022-08-28T18:59:43.072Z,20.95
2022-08-28T19:02:12.798Z,18.92
2022-08-28T19:04:42.609Z,20.70
2022-08-28T19:07:10.519Z,19.92
2022-08-28T19:09:38.461Z,27.77
2022-08-28T19:12:06.994Z,49.58
2022-08-28T19:14:36.920Z,63.97
2022-08-28T19:17:05.095Z,75.32
2022-08-28T19:19:33.442Z,49.92
2022-08-28T19:22:01.894Z,28.38
2022-08-28T19:24:31.122Z,25.13
2022-08-28T19:26:59.020Z,22.33
2022-08-28T19:29:27.766Z,29.42
2022-08-28T19:31:56.982Z,29.63
2022-08-28T19:34:24.929Z,34.50
2022-08-28T19:36:52.884Z,28.90
2022-08-28T19:39:20.780Z,27.80
2022-08-28T19:41:48.905Z,31.83
2022-08-28T19:44:16.761Z,25.35
2022-08-28T19:46:44.802Z,28.95
2022-08-28T19:49:14.174Z,30.60
2022-08-28T19:51:42.607Z,29.30
2022-08-28T19:54:13.984Z,28.48
2022-08-28T19:56:42.036Z,29.40
2022-08-28T19:59:10.515Z,26.15
2022-08-28T20:01:43.461Z,24.05
2022-08-28T20:04:17.423Z,24.17
2022-08-28T20:06:46.180Z,24.27
2022-08-28T20:09:16.036Z,25.92
2022-08-28T20:11:44.967Z,22.45
2022-08-28T20:14:13.320Z,23.35
2022-08-28T20:16:43.099Z,26.77
2022-08-28T20:19:13.686Z,24.38
2022-08-28T20:21:44.617Z,23.70
2022-08-28T20:24:14.745Z,27.75
2022-08-28T20:26:42.706Z,23.35
2022-08-28T20:29:12.156Z,21.45
2022-08-28T20:31:41.637Z,22.05
2022-08-28T20:34:10.277Z,23.55
2022-08-28T20:36:39.925Z,21.50
2022-08-28T20:39:09.319Z,18.88
2022-08-28T20:41:39.064Z,20.05
2022-08-28T20:44:07.790Z,19.60
2022-08-28T20:46:40.974Z,18.73
2022-08-28T20:49:10.194Z,17.88
2022-08-28T20:51:56.792Z,20.40
2022-08-28T20:54:27.741Z,23.88
2022-08-28T20:56:57.280Z,18.70
2022-08-28T20:59:28.809Z,18.60
2022-08-28T21:02:05.282Z,16.88
2022-08-28T21:04:36.263Z,20.95
2022-08-28T21:07:06.886Z,20.42
2022-08-28T21:10:04.362Z,20.98
2022-08-28T21:12:24.657Z,20.23
2022-08-28T21:14:53.267Z,22.55
2022-08-28T21:17:29.311Z,22.63
2022-08-28T21:19:59.982Z,17.95
2022-08-28T21:22:31.405Z,17.73
2022-08-28T21:24:59.434Z,18.27
2022-08-28T21:27:27.824Z,21.05
2022-08-28T21:29:56.628Z,22.20
2022-08-28T21:32:24.555Z,17.25
2022-08-28T21:34:52.719Z,20.10
2022-08-28T21:37:20.741Z,19.60
2022-08-28T21:39:49.991Z,19.23
2022-08-28T21:42:17.989Z,17.27
2022-08-28T21:44:51.441Z,18.02
2022-08-28T21:47:21.332Z,17.13
2022-08-28T21:49:50.317Z,18.55
2022-08-28T21:52:18.521Z,19.45
2022-08-28T21:54:46.544Z,17.35
2022-08-28T21:57:15.899Z,22.58
2022-08-28T21:59:44.004Z,17.55
2022-08-28T22:02:11.940Z,17.17
2022-08-28T22:04:39.973Z,18.75
2022-08-28T22:07:09.792Z,21.15
2022-08-28T22:09:37.714Z,20.58
2022-08-28T22:12:06.344Z,19.65
2022-08-28T22:14:35.936Z,19.77
2022-08-28T22:17:07.605Z,18.63
2022-08-28T22:19:38.883Z,17.50
2022-08-28T22:22:24.416Z,17.42
2022-08-28T22:24:52.361Z,18.70
2022-08-28T22:27:20.260Z,21.75
2022-08-28T22:29:49.654Z,18.88
2022-08-28T22:32:18.183Z,18.98
2022-08-28T22:34:47.696Z,18.70
2022-08-28T22:37:15.623Z,18.23
2022-08-28T22:39:43.775Z,16.73
2022-08-28T22:42:11.687Z,17.88
2022-08-28T22:44:39.757Z,16.60
2022-08-28T22:47:09.044Z,18.45
2022-08-28T22:49:39.475Z,21.38
2022-08-28T22:52:10.273Z,16.20
2022-08-28T22:54:38.777Z,17.92
2022-08-28T22:57:07.030Z,15.82
2022-08-28T22:59:35.799Z,18.45
2022-08-28T23:02:04.766Z,15.13
2022-08-28T23:04:34.334Z,16.75
2022-08-28T23:07:02.266Z,19.30
2022-08-28T23:09:30.162Z,15.85
2022-08-28T23:12:00.040Z,18.48
2022-08-28T23:14:28.071Z,16.83
2022-08-28T23:16:56.156Z,15.73
2022-08-28T23:19:24.201Z,16.08
2022-08-28T23:21:53.525Z,16.48
2022-08-28T23:24:21.379Z,15.82
2022-08-28T23:26:50.034Z,14.77
2022-08-28T23:29:17.968Z,20.77
2022-08-28T23:31:45.880Z,16.58
2022-08-28T23:34:15.925Z,14.88
2022-08-28T23:36:43.905Z,14.95
2022-08-28T23:39:13.260Z,16.92
2022-08-28T23:41:41.362Z,18.10
2022-08-28T23:44:10.036Z,15.48
2022-08-28T23:46:41.100Z,18.90
2022-08-28T23:49:10.620Z,16.08
2022-08-28T23:51:38.984Z,18.95
2022-08-28T23:54:07.649Z,15.57
2022-08-28T23:56:37.287Z,17.25
2022-08-28T23:59:05.658Z,18.23
